Terminal Aerodrome Forecast
Issued by NWS

Home | Current Version | Previous Version | Text Only | Print | Product List | Glossary On
Versions: 1 2 3 4 5 6 7 8 9 10 11 12 13 14 15 16 17 18 19 20 21 22 23
000
FTUS46 KEKA 281736
TAFCEC
TAF
KCEC 281736Z 2818/0118 02009KT P6SM FEW005 SCT200
     FM282000 01015G23KT P6SM SCT040 SCT250
     FM010300 03011KT P6SM SKC
     FM011200 05005KT P6SM SCT250=

USA.gov is the U.S. government's official web portal to all federal, state and local government web resources and services.